sensor_id;sensor_type;location;lat;lon;timestamp;temperature;humidity
32147;DHT22;32190;49.112;8.598;2023-07-13T00:04:19;28.50;37.50
32147;DHT22;32190;49.112;8.598;2023-07-13T00:10:10;28.30;37.20
32147;DHT22;32190;49.112;8.598;2023-07-13T00:16:00;28.30;37.20
32147;DHT22;32190;49.112;8.598;2023-07-13T00:21:52;28.20;37.00
32147;DHT22;32190;49.112;8.598;2023-07-13T00:27:47;28.20;37.20
32147;DHT22;32190;49.112;8.598;2023-07-13T00:33:39;28.10;37.30
32147;DHT22;32190;49.112;8.598;2023-07-13T00:39:30;28.00;37.90
32147;DHT22;32190;49.112;8.598;2023-07-13T00:51:12;28.00;37.30
32147;DHT22;32190;49.112;8.598;2023-07-13T00:57:06;27.80;37.20
32147;DHT22;32190;49.112;8.598;2023-07-13T01:02:58;27.60;37.50
32147;DHT22;32190;49.112;8.598;2023-07-13T01:08:48;27.50;37.60
32147;DHT22;32190;49.112;8.598;2023-07-13T01:14:39;27.30;37.60
32147;DHT22;32190;49.112;8.598;2023-07-13T01:20:30;27.20;37.80
32147;DHT22;32190;49.112;8.598;2023-07-13T01:26:20;27.10;38.10
32147;DHT22;32190;49.112;8.598;2023-07-13T01:32:14;27.00;38.20
32147;DHT22;32190;49.112;8.598;2023-07-13T01:38:05;26.90;38.30
32147;DHT22;32190;49.112;8.598;2023-07-13T01:43:56;26.80;39.00
32147;DHT22;32190;49.112;8.598;2023-07-13T01:49:46;26.70;38.50
32147;DHT22;32190;49.112;8.598;2023-07-13T01:55:38;26.60;38.60
32147;DHT22;32190;49.112;8.598;2023-07-13T02:01:28;26.50;38.80
32147;DHT22;32190;49.112;8.598;2023-07-13T02:07:19;26.30;38.80
32147;DHT22;32190;49.112;8.598;2023-07-13T02:13:10;26.30;39.00
32147;DHT22;32190;49.112;8.598;2023-07-13T02:19:00;26.20;38.90
32147;DHT22;32190;49.112;8.598;2023-07-13T02:24:51;26.20;39.10
32147;DHT22;32190;49.112;8.598;2023-07-13T02:30:41;26.10;39.00
32147;DHT22;32190;49.112;8.598;2023-07-13T02:36:32;26.00;39.10
32147;DHT22;32190;49.112;8.598;2023-07-13T02:42:23;25.80;39.20
32147;DHT22;32190;49.112;8.598;2023-07-13T02:48:14;25.60;39.40
32147;DHT22;32190;49.112;8.598;2023-07-13T02:54:05;25.40;39.60
32147;DHT22;32190;49.112;8.598;2023-07-13T02:59:55;25.40;39.90
32147;DHT22;32190;49.112;8.598;2023-07-13T03:05:46;25.30;39.90
32147;DHT22;32190;49.112;8.598;2023-07-13T03:11:40;25.30;39.90
32147;DHT22;32190;49.112;8.598;2023-07-13T03:17:31;25.20;40.00
32147;DHT22;32190;49.112;8.598;2023-07-13T03:23:22;25.10;40.10
32147;DHT22;32190;49.112;8.598;2023-07-13T03:29:13;25.00;40.10
32147;DHT22;32190;49.112;8.598;2023-07-13T03:35:03;24.90;40.00
32147;DHT22;32190;49.112;8.598;2023-07-13T03:40:54;24.70;40.30
32147;DHT22;32190;49.112;8.598;2023-07-13T03:46:45;24.60;40.50
32147;DHT22;32190;49.112;8.598;2023-07-13T03:52:35;24.50;40.60
32147;DHT22;32190;49.112;8.598;2023-07-13T04:04:18;24.30;41.00
32147;DHT22;32190;49.112;8.598;2023-07-13T04:10:09;24.10;41.20
32147;DHT22;32190;49.112;8.598;2023-07-13T04:15:59;24.10;41.40
32147;DHT22;32190;49.112;8.598;2023-07-13T04:21:50;24.00;41.40
32147;DHT22;32190;49.112;8.598;2023-07-13T04:27:40;24.00;41.60
32147;DHT22;32190;49.112;8.598;2023-07-13T04:33:31;24.00;41.70
32147;DHT22;32190;49.112;8.598;2023-07-13T04:39:21;23.90;41.90
32147;DHT22;32190;49.112;8.598;2023-07-13T04:45:15;23.90;42.20
32147;DHT22;32190;49.112;8.598;2023-07-13T04:51:06;23.70;42.60
32147;DHT22;32190;49.112;8.598;2023-07-13T04:56:56;23.50;42.80
32147;DHT22;32190;49.112;8.598;2023-07-13T05:02:47;23.50;43.20
32147;DHT22;32190;49.112;8.598;2023-07-13T05:08:37;23.70;43.50
32147;DHT22;32190;49.112;8.598;2023-07-13T05:14:28;23.70;43.80
32147;DHT22;32190;49.112;8.598;2023-07-13T05:20:19;23.80;43.60
32147;DHT22;32190;49.112;8.598;2023-07-13T05:26:10;23.90;44.10
32147;DHT22;32190;49.112;8.598;2023-07-13T05:32:01;23.90;44.40
32147;DHT22;32190;49.112;8.598;2023-07-13T05:37:51;24.00;44.70
32147;DHT22;32190;49.112;8.598;2023-07-13T05:43:42;24.30;44.90
32147;DHT22;32190;49.112;8.598;2023-07-13T05:49:32;24.80;45.20
32147;DHT22;32190;49.112;8.598;2023-07-13T05:55:23;25.60;45.10
32147;DHT22;32190;49.112;8.598;2023-07-13T06:01:15;26.60;44.90
32147;DHT22;32190;49.112;8.598;2023-07-13T06:07:06;27.50;44.20
32147;DHT22;32190;49.112;8.598;2023-07-13T06:12:56;28.40;43.40
32147;DHT22;32190;49.112;8.598;2023-07-13T06:18:47;29.50;42.50
32147;DHT22;32190;49.112;8.598;2023-07-13T06:24:37;30.50;41.50
32147;DHT22;32190;49.112;8.598;2023-07-13T06:30:28;31.50;40.40
32147;DHT22;32190;49.112;8.598;2023-07-13T06:36:18;32.40;39.40
32147;DHT22;32190;49.112;8.598;2023-07-13T06:42:09;33.20;38.40
32147;DHT22;32190;49.112;8.598;2023-07-13T06:48:01;33.70;37.40
32147;DHT22;32190;49.112;8.598;2023-07-13T06:53:52;34.00;36.80
32147;DHT22;32190;49.112;8.598;2023-07-13T06:59:42;34.30;36.10
32147;DHT22;32190;49.112;8.598;2023-07-13T07:05:33;34.50;35.70
32147;DHT22;32190;49.112;8.598;2023-07-13T07:11:25;34.60;34.90
32147;DHT22;32190;49.112;8.598;2023-07-13T07:17:15;34.30;34.30
32147;DHT22;32190;49.112;8.598;2023-07-13T07:23:06;33.70;33.60
32147;DHT22;32190;49.112;8.598;2023-07-13T07:28:57;32.90;33.80
32147;DHT22;32190;49.112;8.598;2023-07-13T07:34:47;32.10;34.30
32147;DHT22;32190;49.112;8.598;2023-07-13T07:40:39;31.60;34.80
32147;DHT22;32190;49.112;8.598;2023-07-13T07:46:30;31.30;34.80
32147;DHT22;32190;49.112;8.598;2023-07-13T07:52:21;31.10;34.80
32147;DHT22;32190;49.112;8.598;2023-07-13T07:58:11;30.90;34.70
32147;DHT22;32190;49.112;8.598;2023-07-13T08:04:02;30.70;34.80
32147;DHT22;32190;49.112;8.598;2023-07-13T08:09:53;30.50;34.80
32147;DHT22;32190;49.112;8.598;2023-07-13T08:15:44;30.30;34.70
32147;DHT22;32190;49.112;8.598;2023-07-13T08:21:35;30.00;34.90
32147;DHT22;32190;49.112;8.598;2023-07-13T08:27:27;29.80;35.20
32147;DHT22;32190;49.112;8.598;2023-07-13T08:33:19;29.70;34.60
32147;DHT22;32190;49.112;8.598;2023-07-13T08:39:10;29.50;34.80
32147;DHT22;32190;49.112;8.598;2023-07-13T08:56:53;29.30;35.20
32147;DHT22;32190;49.112;8.598;2023-07-13T09:02:56;29.30;35.10
32147;DHT22;32190;49.112;8.598;2023-07-13T09:09:01;29.10;34.80
32147;DHT22;32190;49.112;8.598;2023-07-13T09:14:56;29.00;35.50
32147;DHT22;32190;49.112;8.598;2023-07-13T09:20:56;28.90;35.40
32147;DHT22;32190;49.112;8.598;2023-07-13T09:26:49;28.80;35.60
32147;DHT22;32190;49.112;8.598;2023-07-13T09:32:41;28.80;35.30
32147;DHT22;32190;49.112;8.598;2023-07-13T09:38:33;28.80;35.40
32147;DHT22;32190;49.112;8.598;2023-07-13T09:44:31;28.80;35.30
32147;DHT22;32190;49.112;8.598;2023-07-13T09:50:24;28.80;35.00
32147;DHT22;32190;49.112;8.598;2023-07-13T09:56:29;28.90;35.50
32147;DHT22;32190;49.112;8.598;2023-07-13T10:02:34;28.90;34.90
32147;DHT22;32190;49.112;8.598;2023-07-13T10:08:27;29.00;35.00
32147;DHT22;32190;49.112;8.598;2023-07-13T10:14:21;29.10;35.30
32147;DHT22;32190;49.112;8.598;2023-07-13T10:20:14;29.10;34.80
32147;DHT22;32190;49.112;8.598;2023-07-13T10:26:12;29.20;34.90
32147;DHT22;32190;49.112;8.598;2023-07-13T10:32:09;29.20;34.60
32147;DHT22;32190;49.112;8.598;2023-07-13T10:38:04;29.20;34.60
32147;DHT22;32190;49.112;8.598;2023-07-13T10:43:57;29.20;34.60
32147;DHT22;32190;49.112;8.598;2023-07-13T10:49:52;29.20;34.90
32147;DHT22;32190;49.112;8.598;2023-07-13T11:01:53;29.50;34.80
32147;DHT22;32190;49.112;8.598;2023-07-13T11:08:18;29.60;34.30
32147;DHT22;32190;49.112;8.598;2023-07-13T11:14:27;29.70;34.00
32147;DHT22;32190;49.112;8.598;2023-07-13T11:20:22;29.80;33.90
32147;DHT22;32190;49.112;8.598;2023-07-13T11:32:32;29.90;33.60
32147;DHT22;32190;49.112;8.598;2023-07-13T11:38:36;29.90;33.90
32147;DHT22;32190;49.112;8.598;2023-07-13T11:44:29;29.80;33.60
32147;DHT22;32190;49.112;8.598;2023-07-13T11:50:22;29.80;34.20
32147;DHT22;32190;49.112;8.598;2023-07-13T11:56:13;29.80;34.20
32147;DHT22;32190;49.112;8.598;2023-07-13T12:02:16;29.80;34.00
32147;DHT22;32190;49.112;8.598;2023-07-13T12:08:11;29.80;34.10
32147;DHT22;32190;49.112;8.598;2023-07-13T12:14:01;29.90;34.00
32147;DHT22;32190;49.112;8.598;2023-07-13T12:19:53;30.00;34.30
32147;DHT22;32190;49.112;8.598;2023-07-13T12:25:43;30.00;34.30
32147;DHT22;32190;49.112;8.598;2023-07-13T12:31:42;30.10;35.00
32147;DHT22;32190;49.112;8.598;2023-07-13T12:37:34;30.10;33.60
32147;DHT22;32190;49.112;8.598;2023-07-13T12:43:25;30.10;34.20
32147;DHT22;32190;49.112;8.598;2023-07-13T12:49:17;30.20;34.40
32147;DHT22;32190;49.112;8.598;2023-07-13T12:55:16;30.30;34.20
32147;DHT22;32190;49.112;8.598;2023-07-13T13:01:09;30.30;34.00
32147;DHT22;32190;49.112;8.598;2023-07-13T13:07:02;30.40;34.00
32147;DHT22;32190;49.112;8.598;2023-07-13T13:12:53;30.50;33.40
32147;DHT22;32190;49.112;8.598;2023-07-13T13:18:44;30.70;33.40
32147;DHT22;32190;49.112;8.598;2023-07-13T13:24:35;30.80;33.10
32147;DHT22;32190;49.112;8.598;2023-07-13T13:30:25;30.80;33.00
32147;DHT22;32190;49.112;8.598;2023-07-13T13:36:18;30.90;33.20
32147;DHT22;32190;49.112;8.598;2023-07-13T13:42:10;30.90;32.00
32147;DHT22;32190;49.112;8.598;2023-07-13T13:48:01;30.80;32.40
32147;DHT22;32190;49.112;8.598;2023-07-13T13:53:51;30.80;32.10
32147;DHT22;32190;49.112;8.598;2023-07-13T13:59:43;30.90;31.90
32147;DHT22;32190;49.112;8.598;2023-07-13T14:05:34;30.90;32.00
32147;DHT22;32190;49.112;8.598;2023-07-13T14:11:25;31.00;31.70
32147;DHT22;32190;49.112;8.598;2023-07-13T14:17:27;31.10;31.70
32147;DHT22;32190;49.112;8.598;2023-07-13T14:23:18;31.10;30.90
32147;DHT22;32190;49.112;8.598;2023-07-13T14:29:14;31.20;31.70
32147;DHT22;32190;49.112;8.598;2023-07-13T14:35:07;31.30;30.70
32147;DHT22;32190;49.112;8.598;2023-07-13T14:40:58;31.40;30.70
32147;DHT22;32190;49.112;8.598;2023-07-13T14:46:49;31.20;30.90
32147;DHT22;32190;49.112;8.598;2023-07-13T14:52:41;31.20;31.10
32147;DHT22;32190;49.112;8.598;2023-07-13T14:58:32;31.10;30.50
32147;DHT22;32190;49.112;8.598;2023-07-13T15:04:22;31.00;30.60
32147;DHT22;32190;49.112;8.598;2023-07-13T15:10:18;31.00;31.10
32147;DHT22;32190;49.112;8.598;2023-07-13T15:16:22;31.00;30.80
32147;DHT22;32190;49.112;8.598;2023-07-13T15:22:13;31.10;30.80
32147;DHT22;32190;49.112;8.598;2023-07-13T15:28:04;31.30;30.40
32147;DHT22;32190;49.112;8.598;2023-07-13T15:33:56;31.20;30.30
32147;DHT22;32190;49.112;8.598;2023-07-13T15:39:47;31.20;30.40
32147;DHT22;32190;49.112;8.598;2023-07-13T15:45:38;31.20;30.60
32147;DHT22;32190;49.112;8.598;2023-07-13T15:51:30;31.30;31.10
32147;DHT22;32190;49.112;8.598;2023-07-13T15:57:24;31.40;30.70
32147;DHT22;32190;49.112;8.598;2023-07-13T16:03:15;31.60;30.60
32147;DHT22;32190;49.112;8.598;2023-07-13T16:09:06;31.80;30.00
32147;DHT22;32190;49.112;8.598;2023-07-13T16:14:57;31.80;30.30
32147;DHT22;32190;49.112;8.598;2023-07-13T16:20:49;31.80;30.90
32147;DHT22;32190;49.112;8.598;2023-07-13T16:26:39;32.10;30.40
32147;DHT22;32190;49.112;8.598;2023-07-13T16:32:30;32.00;29.70
32147;DHT22;32190;49.112;8.598;2023-07-13T16:38:22;31.90;29.90
32147;DHT22;32190;49.112;8.598;2023-07-13T16:44:19;31.80;29.90
32147;DHT22;32190;49.112;8.598;2023-07-13T16:50:18;31.70;29.80
32147;DHT22;32190;49.112;8.598;2023-07-13T16:56:15;31.60;30.20
32147;DHT22;32190;49.112;8.598;2023-07-13T17:02:35;31.60;29.90
32147;DHT22;32190;49.112;8.598;2023-07-13T17:08:29;31.60;30.30
32147;DHT22;32190;49.112;8.598;2023-07-13T17:14:22;31.60;30.00
32147;DHT22;32190;49.112;8.598;2023-07-13T17:20:20;31.60;30.70
32147;DHT22;32190;49.112;8.598;2023-07-13T17:26:14;31.80;29.80
32147;DHT22;32190;49.112;8.598;2023-07-13T17:32:05;31.70;30.00
32147;DHT22;32190;49.112;8.598;2023-07-13T17:38:01;31.50;30.00
32147;DHT22;32190;49.112;8.598;2023-07-13T17:43:52;31.40;30.20
32147;DHT22;32190;49.112;8.598;2023-07-13T17:49:43;31.30;30.10
32147;DHT22;32190;49.112;8.598;2023-07-13T17:55:36;31.10;30.00
32147;DHT22;32190;49.112;8.598;2023-07-13T18:01:28;31.00;30.00
32147;DHT22;32190;49.112;8.598;2023-07-13T18:07:21;30.80;29.90
32147;DHT22;32190;49.112;8.598;2023-07-13T18:13:18;30.60;30.20
32147;DHT22;32190;49.112;8.598;2023-07-13T18:19:35;30.50;30.40
32147;DHT22;32190;49.112;8.598;2023-07-13T18:25:27;30.40;30.10
32147;DHT22;32190;49.112;8.598;2023-07-13T18:31:19;30.40;30.50
32147;DHT22;32190;49.112;8.598;2023-07-13T18:37:31;30.30;30.10
32147;DHT22;32190;49.112;8.598;2023-07-13T18:43:22;30.20;30.00
32147;DHT22;32190;49.112;8.598;2023-07-13T18:49:13;30.10;30.30
32147;DHT22;32190;49.112;8.598;2023-07-13T18:55:16;30.20;30.60
32147;DHT22;32190;49.112;8.598;2023-07-13T19:01:27;30.10;30.20
32147;DHT22;32190;49.112;8.598;2023-07-13T19:07:18;30.00;30.10
32147;DHT22;32190;49.112;8.598;2023-07-13T19:13:12;30.00;30.80
32147;DHT22;32190;49.112;8.598;2023-07-13T19:19:12;30.00;31.40
32147;DHT22;32190;49.112;8.598;2023-07-13T19:25:03;30.10;31.70
32147;DHT22;32190;49.112;8.598;2023-07-13T19:30:54;30.20;31.60
32147;DHT22;32190;49.112;8.598;2023-07-13T19:36:46;30.20;31.60
32147;DHT22;32190;49.112;8.598;2023-07-13T19:42:37;30.20;31.50
32147;DHT22;32190;49.112;8.598;2023-07-13T19:48:28;30.10;31.40
32147;DHT22;32190;49.112;8.598;2023-07-13T19:54:18;30.00;31.80
32147;DHT22;32190;49.112;8.598;2023-07-13T20:00:23;29.90;31.80
32147;DHT22;32190;49.112;8.598;2023-07-13T20:06:26;29.70;32.00
32147;DHT22;32190;49.112;8.598;2023-07-13T20:12:23;29.60;32.30
32147;DHT22;32190;49.112;8.598;2023-07-13T20:18:15;29.50;32.40
32147;DHT22;32190;49.112;8.598;2023-07-13T20:24:13;29.50;32.40
32147;DHT22;32190;49.112;8.598;2023-07-13T20:30:06;29.40;32.60
32147;DHT22;32190;49.112;8.598;2023-07-13T20:36:03;29.40;32.70
32147;DHT22;32190;49.112;8.598;2023-07-13T20:41:54;29.30;33.00
32147;DHT22;32190;49.112;8.598;2023-07-13T20:47:48;29.20;33.00
32147;DHT22;32190;49.112;8.598;2023-07-13T20:53:40;29.10;33.20
32147;DHT22;32190;49.112;8.598;2023-07-13T20:59:30;29.00;33.40
32147;DHT22;32190;49.112;8.598;2023-07-13T21:05:26;29.00;33.50
32147;DHT22;32190;49.112;8.598;2023-07-13T21:11:17;28.80;33.60
32147;DHT22;32190;49.112;8.598;2023-07-13T21:17:11;28.70;33.60
32147;DHT22;32190;49.112;8.598;2023-07-13T21:23:08;28.60;33.80
32147;DHT22;32190;49.112;8.598;2023-07-13T21:29:02;28.50;33.90
32147;DHT22;32190;49.112;8.598;2023-07-13T21:34:52;28.30;34.10
32147;DHT22;32190;49.112;8.598;2023-07-13T21:40:44;28.20;34.20
32147;DHT22;32190;49.112;8.598;2023-07-13T21:46:36;28.10;34.40
32147;DHT22;32190;49.112;8.598;2023-07-13T21:52:26;27.90;34.50
32147;DHT22;32190;49.112;8.598;2023-07-13T22:04:13;27.20;35.10
32147;DHT22;32190;49.112;8.598;2023-07-13T22:10:13;27.00;35.50
32147;DHT22;32190;49.112;8.598;2023-07-13T22:22:03;26.60;36.00
32147;DHT22;32190;49.112;8.598;2023-07-13T22:27:53;26.50;35.90
32147;DHT22;32190;49.112;8.598;2023-07-13T22:33:44;26.30;36.00
32147;DHT22;32190;49.112;8.598;2023-07-13T22:39:35;26.20;36.20
32147;DHT22;32190;49.112;8.598;2023-07-13T22:45:26;26.00;36.20
32147;DHT22;32190;49.112;8.598;2023-07-13T22:51:18;25.90;36.40
32147;DHT22;32190;49.112;8.598;2023-07-13T22:57:09;25.80;36.50
32147;DHT22;32190;49.112;8.598;2023-07-13T23:02:59;25.70;36.60
32147;DHT22;32190;49.112;8.598;2023-07-13T23:08:50;25.60;36.70
32147;DHT22;32190;49.112;8.598;2023-07-13T23:14:41;25.70;36.80
32147;DHT22;32190;49.112;8.598;2023-07-13T23:20:33;25.60;36.80
32147;DHT22;32190;49.112;8.598;2023-07-13T23:26:26;25.60;37.30
32147;DHT22;32190;49.112;8.598;2023-07-13T23:32:17;25.50;36.90
32147;DHT22;32190;49.112;8.598;2023-07-13T23:38:09;25.50;37.10
32147;DHT22;32190;49.112;8.598;2023-07-13T23:44:01;25.40;37.30
32147;DHT22;32190;49.112;8.598;2023-07-13T23:49:52;25.30;37.20
32147;DHT22;32190;49.112;8.598;2023-07-13T23:55:45;25.20;37.30
